Monday, October 20, 2014

  Over 45,111,151 pages visited!

GMT:
22:43
PACIFIC:
3:43:39 PM
MOUNTAIN:
4:43:39 PM

CENTRAL:
5:43:39 PM

EASTERN:
6:43:39 PM
ATLANTIC:
7:43:39 PM
NEWFOUNDLAND:
8:13:39 PM
 

 


Watches/Warnings
Current Conditions
Radar/Satellite
Lightning Images


Current Weather Conditions For TORONTO PEARSON,ON

 


Light Rain Showers
 

Temperature: 11C / 52F
Dew Point: 10 C / 50F
Humidity: 94 %
Pressure: 1008.8 mbs (29.79 inches)
Visibility: 6.4 kms (4 SM)
Wind Direction: S (180)
Wind Speed: 5.6 Km/h (3.5 MPH)
Max Wind Gust: No Gusts
Humidex: N/A
WindChill: N/A
    

Observation Information

Date/Time: Monday, October 20, 2014 @ 22:00Z
Local Time:
Metar Coded: CYYZ 202200Z 18003KT 4SM -SHRA BR OVC020 11/10 A2978 RMK SC8 TCU EMBDD SLP088

 

 

                   1997-2014 The Ontario Weather Page